createdAt,value
2022-09-21T00:01:33.870Z,6.95
2022-09-21T00:06:38.150Z,7.08
2022-09-21T00:11:40.337Z,6.67
2022-09-21T00:16:43.540Z,6.97
2022-09-21T00:21:45.734Z,6.74
2022-09-21T00:26:47.844Z,6.68
2022-09-21T00:31:50.070Z,6.61
2022-09-21T00:36:52.322Z,6.39
2022-09-21T00:41:54.522Z,6.57
2022-09-21T00:47:02.543Z,6.48
2022-09-21T00:52:05.746Z,5.94
2022-09-21T00:57:08.262Z,6.54
2022-09-21T01:02:10.590Z,5.87
2022-09-21T01:07:19.555Z,5.78
2022-09-21T01:12:51.874Z,6.63
2022-09-21T01:17:59.962Z,6.58
2022-09-21T01:23:26.537Z,6.61
2022-09-21T01:28:34.855Z,6.55
2022-09-21T01:33:41.536Z,6.52
2022-09-21T01:38:48.024Z,6.27
2022-09-21T01:43:55.770Z,6.28
2022-09-21T01:49:01.210Z,6.29
2022-09-21T01:54:10.370Z,6.21
2022-09-21T01:59:27.068Z,6.19
2022-09-21T02:04:29.338Z,6.25
2022-09-21T02:09:31.999Z,5.69
2022-09-21T02:14:35.658Z,6.13
2022-09-21T02:19:46.541Z,6.32
2022-09-21T02:24:50.243Z,6.35
2022-09-21T02:30:26.408Z,6.40
2022-09-21T02:35:36.406Z,6.17
2022-09-21T02:40:43.928Z,6.30
2022-09-21T02:45:51.580Z,6.02
2022-09-21T02:51:04.725Z,5.58
2022-09-21T02:56:08.217Z,6.14
2022-09-21T03:01:15.104Z,5.86
2022-09-21T03:06:17.229Z,6.21
2022-09-21T03:11:20.468Z,5.83
2022-09-21T03:16:24.348Z,5.47
2022-09-21T03:21:26.547Z,6.10
2022-09-21T03:26:28.718Z,5.57
2022-09-21T03:31:31.630Z,5.86
2022-09-21T03:36:33.856Z,6.08
2022-09-21T03:41:36.015Z,5.95
2022-09-21T03:46:38.154Z,6.03
2022-09-21T03:51:40.767Z,5.94
2022-09-21T03:56:43.011Z,5.95
2022-09-21T04:01:45.234Z,6.17
2022-09-21T04:06:47.395Z,6.06
2022-09-21T04:11:49.570Z,6.15
2022-09-21T04:16:52.317Z,6.28
2022-09-21T04:21:56.225Z,6.27
2022-09-21T04:26:58.435Z,6.43
2022-09-21T04:32:00.640Z,6.27
2022-09-21T04:37:02.888Z,6.48
2022-09-21T04:42:05.772Z,6.20
2022-09-21T04:47:08.044Z,6.86
2022-09-21T04:52:10.200Z,6.50
2022-09-21T04:57:12.950Z,6.71
2022-09-21T05:02:15.168Z,6.88
2022-09-21T05:07:17.591Z,6.17
2022-09-21T05:12:22.677Z,6.98
2022-09-21T05:17:24.947Z,7.01
2022-09-21T05:22:28.108Z,7.14
2022-09-21T05:27:30.222Z,6.60
2022-09-21T05:32:58.249Z,7.54
2022-09-21T05:38:17.893Z,7.62
2022-09-21T05:43:20.449Z,7.63
2022-09-21T05:48:43.424Z,7.39
2022-09-21T05:54:05.108Z,7.73
2022-09-21T05:59:07.190Z,7.85
2022-09-21T06:04:14.095Z,7.60
2022-09-21T06:09:16.271Z,7.17
2022-09-21T06:14:24.801Z,7.74
2022-09-21T06:19:27.567Z,7.73
2022-09-21T06:24:29.719Z,8.02
2022-09-21T06:29:31.886Z,8.03
2022-09-21T06:34:34.044Z,7.94
2022-09-21T06:39:36.199Z,8.47
2022-09-21T06:44:38.372Z,8.11
2022-09-21T06:49:42.656Z,8.10
2022-09-21T06:54:45.005Z,8.69
2022-09-21T06:59:47.292Z,8.77
2022-09-21T07:04:49.448Z,8.82
2022-09-21T07:10:11.469Z,9.21
2022-09-21T07:15:15.663Z,8.97
2022-09-21T07:20:18.041Z,9.21
2022-09-21T07:25:20.185Z,9.48
2022-09-21T07:30:22.308Z,9.52
2022-09-21T07:35:24.983Z,9.89
2022-09-21T07:40:27.273Z,9.86
2022-09-21T07:45:31.561Z,9.71
2022-09-21T07:50:34.418Z,10.19
2022-09-21T07:55:36.596Z,9.96
2022-09-21T08:00:38.908Z,10.38
2022-09-21T08:05:41.055Z,10.12
2022-09-21T08:10:43.236Z,10.28
2022-09-21T08:15:49.787Z,10.29
2022-09-21T08:21:00.112Z,10.54
2022-09-21T08:26:03.880Z,10.63
2022-09-21T08:31:11.047Z,10.94
2022-09-21T08:36:13.431Z,10.97
2022-09-21T08:41:30.786Z,11.22
2022-09-21T08:46:34.927Z,11.26
2022-09-21T08:51:45.958Z,11.42
2022-09-21T08:57:04.448Z,10.98
2022-09-21T09:02:07.482Z,11.58
2022-09-21T09:07:15.287Z,11.67
2022-09-21T09:12:34.356Z,11.76
2022-09-21T09:17:50.610Z,11.84
2022-09-21T09:23:21.869Z,11.76
2022-09-21T09:28:26.264Z,11.89
2022-09-21T09:33:57.267Z,11.73
2022-09-21T09:39:12.456Z,12.01
2022-09-21T09:44:42.514Z,12.15
2022-09-21T09:49:54.228Z,12.19
2022-09-21T09:54:56.456Z,12.01
2022-09-21T10:00:12.688Z,11.99
2022-09-21T10:05:41.675Z,12.37
2022-09-21T10:10:44.304Z,12.14
2022-09-21T10:15:51.976Z,12.22
2022-09-21T10:21:23.932Z,12.36
2022-09-21T10:26:32.103Z,12.31
2022-09-21T10:31:34.630Z,12.29
2022-09-21T10:36:39.040Z,12.10
2022-09-21T10:41:41.319Z,12.37
2022-09-21T10:46:44.651Z,12.32
2022-09-21T10:51:48.452Z,12.44
2022-09-21T10:57:04.805Z,12.26
2022-09-21T11:02:31.941Z,12.57
2022-09-21T11:07:58.193Z,12.15
2022-09-21T11:13:18.007Z,12.45
2022-09-21T11:18:46.859Z,12.75
2022-09-21T11:24:03.543Z,12.66
2022-09-21T11:29:40.436Z,12.87
2022-09-21T11:34:59.295Z,12.21
2022-09-21T11:40:35.894Z,12.56
2022-09-21T11:45:59.082Z,12.51
2022-09-21T11:51:25.994Z,12.88
2022-09-21T11:56:49.771Z,12.82
2022-09-21T12:02:24.606Z,12.86
2022-09-21T12:08:03.777Z,12.80
2022-09-21T12:13:09.005Z,12.68
2022-09-21T12:18:15.237Z,12.58
2022-09-21T12:23:28.568Z,12.57
2022-09-21T12:28:43.513Z,12.75
2022-09-21T12:33:51.401Z,12.55
2022-09-21T12:39:03.872Z,12.46
2022-09-21T12:44:27.253Z,11.86
2022-09-21T12:49:31.985Z,12.43
2022-09-21T12:54:50.386Z,12.52
2022-09-21T13:00:04.528Z,12.65
2022-09-21T13:05:29.262Z,12.66
2022-09-21T13:10:45.528Z,12.07
2022-09-21T13:15:49.010Z,12.17
2022-09-21T13:20:52.399Z,11.72
2022-09-21T13:26:15.094Z,12.23
2022-09-21T13:31:39.852Z,12.42
2022-09-21T13:36:39.545Z,12.15
2022-09-21T13:42:01.694Z,12.04
2022-09-21T13:47:04.658Z,12.05
2022-09-21T13:52:15.994Z,12.36
2022-09-21T13:57:40.372Z,12.12
2022-09-21T14:02:51.605Z,12.29
2022-09-21T14:08:02.506Z,12.10
2022-09-21T14:13:17.842Z,11.95
2022-09-21T14:18:34.898Z,11.74
2022-09-21T14:23:38.350Z,12.09
2022-09-21T14:28:45.429Z,12.22
2022-09-21T14:33:53.249Z,11.79
2022-09-21T14:38:59.796Z,11.86
2022-09-21T14:44:02.313Z,11.25
2022-09-21T14:49:10.526Z,12.17
2022-09-21T14:54:26.513Z,11.45
2022-09-21T14:59:39.428Z,11.88
2022-09-21T15:04:45.718Z,12.05
2022-09-21T15:10:58.153Z,11.80
2022-09-21T15:16:03.130Z,12.07
2022-09-21T15:21:05.777Z,11.81
2022-09-21T15:26:26.727Z,11.98
2022-09-21T15:31:34.332Z,11.77
2022-09-21T15:36:41.582Z,11.90
2022-09-21T15:41:49.196Z,11.86
2022-09-21T15:46:54.996Z,11.41
2022-09-21T15:52:02.632Z,11.56
2022-09-21T15:57:29.021Z,11.13
2022-09-21T16:02:37.707Z,11.27
2022-09-21T16:07:42.222Z,10.73
2022-09-21T16:12:45.384Z,11.29
2022-09-21T16:17:58.567Z,11.43
2022-09-21T16:23:06.777Z,11.35
2022-09-21T16:28:17.983Z,11.48
2022-09-21T16:33:42.958Z,11.52
2022-09-21T16:38:47.365Z,11.38
2022-09-21T16:43:51.186Z,11.31
2022-09-21T16:48:55.544Z,11.24
2022-09-21T16:53:58.713Z,11.24
2022-09-21T16:59:04.410Z,11.25
2022-09-21T17:04:06.569Z,11.11
2022-09-21T17:09:31.514Z,11.19
2022-09-21T17:14:36.183Z,11.14
2022-09-21T17:19:39.362Z,11.20
2022-09-21T17:24:56.524Z,10.70
2022-09-21T17:30:03.527Z,10.94
2022-09-21T17:35:24.954Z,11.07
2022-09-21T17:40:27.572Z,11.05
2022-09-21T17:45:39.191Z,11.11
2022-09-21T17:50:41.664Z,10.86
2022-09-21T17:55:55.558Z,10.47
2022-09-21T18:01:07.963Z,11.09
2022-09-21T18:06:11.255Z,10.87
2022-09-21T18:11:49.527Z,11.05
2022-09-21T18:17:23.272Z,11.10
2022-09-21T18:23:01.809Z,10.39
2022-09-21T18:28:13.982Z,11.07
2022-09-21T18:33:24.041Z,11.04
2022-09-21T18:38:33.177Z,10.28
2022-09-21T18:43:46.651Z,11.01
2022-09-21T18:48:54.672Z,11.01
2022-09-21T18:53:57.591Z,10.90
2022-09-21T18:59:00.268Z,10.69
2022-09-21T19:04:02.821Z,10.72
2022-09-21T19:09:40.076Z,10.67
2022-09-21T19:14:51.304Z,10.89
2022-09-21T19:20:15.904Z,10.76
2022-09-21T19:25:49.365Z,10.67
2022-09-21T19:31:00.455Z,10.42
2022-09-21T19:36:03.569Z,10.64
2022-09-21T19:41:28.435Z,10.84
2022-09-21T19:46:34.286Z,10.26
2022-09-21T19:51:36.492Z,10.73
2022-09-21T19:57:05.760Z,10.67
2022-09-21T20:02:20.015Z,10.60
2022-09-21T20:07:27.696Z,10.65
2022-09-21T20:12:39.997Z,10.65
2022-09-21T20:17:50.278Z,10.62
2022-09-21T20:22:53.302Z,10.57
2022-09-21T20:27:56.969Z,10.46
2022-09-21T20:33:10.986Z,10.35
2022-09-21T20:38:15.057Z,10.43
2022-09-21T20:43:17.243Z,10.17
2022-09-21T20:48:20.218Z,10.34
2022-09-21T20:53:22.528Z,10.26
2022-09-21T20:58:25.123Z,10.27
2022-09-21T21:03:27.407Z,10.18
2022-09-21T21:08:29.746Z,10.23
2022-09-21T21:13:33.967Z,10.12
2022-09-21T21:18:36.147Z,10.26
2022-09-21T21:23:56.935Z,10.34
2022-09-21T21:28:59.311Z,9.71
2022-09-21T21:34:01.551Z,9.93
2022-09-21T21:39:03.878Z,10.05
2022-09-21T21:44:06.100Z,9.55
2022-09-21T21:49:08.344Z,9.88
2022-09-21T21:54:11.146Z,9.94
2022-09-21T21:59:17.946Z,9.47
2022-09-21T22:04:24.451Z,9.95
2022-09-21T22:09:29.218Z,9.89
2022-09-21T22:14:31.364Z,10.07
2022-09-21T22:19:33.535Z,9.94
2022-09-21T22:24:35.669Z,10.00
2022-09-21T22:29:37.825Z,9.66
2022-09-21T22:34:40.097Z,10.10
2022-09-21T22:39:43.032Z,9.90
2022-09-21T22:44:45.220Z,9.81
2022-09-21T22:49:47.335Z,9.59
2022-09-21T22:54:49.703Z,9.48
2022-09-21T22:59:51.900Z,9.88
2022-09-21T23:04:54.090Z,9.98
2022-09-21T23:09:56.318Z,10.04
2022-09-21T23:14:58.485Z,9.66
2022-09-21T23:20:00.841Z,10.03
2022-09-21T23:25:03.867Z,9.93
2022-09-21T23:30:06.771Z,9.66
2022-09-21T23:35:08.984Z,9.82
2022-09-21T23:40:11.186Z,9.60
2022-09-21T23:45:13.411Z,9.72
2022-09-21T23:50:16.125Z,9.74
2022-09-21T23:55:19.489Z,9.62
